sensor_id;sensor_type;location;lat;lon;timestamp;pressure;altitude;pressure_sealevel;temperature;humidity
34237;BME280;20501;45.956;13.632;2023-06-14T00:02:11;100115.78;;;18.58;79.03
34237;BME280;20501;45.956;13.632;2023-06-14T00:04:36;100114.13;;;18.64;78.89
34237;BME280;20501;45.956;13.632;2023-06-14T00:07:03;100099.78;;;18.48;80.96
34237;BME280;20501;45.956;13.632;2023-06-14T00:09:28;100103.31;;;18.35;80.80
34237;BME280;20501;45.956;13.632;2023-06-14T00:11:54;100097.47;;;18.52;79.05
34237;BME280;20501;45.956;13.632;2023-06-14T00:14:19;100097.66;;;18.44;79.48
34237;BME280;20501;45.956;13.632;2023-06-14T00:16:45;100100.09;;;18.32;81.18
34237;BME280;20501;45.956;13.632;2023-06-14T00:19:10;100096.00;;;18.49;80.86
34237;BME280;20501;45.956;13.632;2023-06-14T00:21:38;100094.22;;;18.28;81.15
34237;BME280;20501;45.956;13.632;2023-06-14T00:24:04;100089.75;;;18.20;82.24
34237;BME280;20501;45.956;13.632;2023-06-14T00:26:30;100080.81;;;18.47;80.68
34237;BME280;20501;45.956;13.632;2023-06-14T00:28:56;100080.69;;;17.85;82.63
34237;BME280;20501;45.956;13.632;2023-06-14T00:31:22;100087.25;;;17.90;84.58
34237;BME280;20501;45.956;13.632;2023-06-14T00:33:48;100083.59;;;18.05;82.96
34237;BME280;20501;45.956;13.632;2023-06-14T00:36:13;100079.97;;;17.98;81.96
34237;BME280;20501;45.956;13.632;2023-06-14T00:38:39;100086.00;;;18.28;81.17
34237;BME280;20501;45.956;13.632;2023-06-14T00:41:04;100077.38;;;18.24;82.34
34237;BME280;20501;45.956;13.632;2023-06-14T00:43:30;100078.91;;;18.40;80.97
34237;BME280;20501;45.956;13.632;2023-06-14T00:45:55;100078.19;;;18.25;82.36
34237;BME280;20501;45.956;13.632;2023-06-14T00:48:21;100068.84;;;18.48;80.13
34237;BME280;20501;45.956;13.632;2023-06-14T00:50:47;100068.81;;;18.34;79.79
34237;BME280;20501;45.956;13.632;2023-06-14T00:53:17;100072.47;;;18.13;77.41
34237;BME280;20501;45.956;13.632;2023-06-14T00:55:46;100068.19;;;17.69;83.38
34237;BME280;20501;45.956;13.632;2023-06-14T00:58:12;100065.13;;;18.14;81.55
34237;BME280;20501;45.956;13.632;2023-06-14T01:00:37;100062.72;;;17.97;81.54
34237;BME280;20501;45.956;13.632;2023-06-14T01:03:03;100064.53;;;18.25;78.66
34237;BME280;20501;45.956;13.632;2023-06-14T01:05:29;100056.22;;;17.98;79.89
34237;BME280;20501;45.956;13.632;2023-06-14T01:10:44;100053.38;;;17.56;77.09
34237;BME280;20501;45.956;13.632;2023-06-14T01:13:26;100045.72;;;18.02;77.71
34237;BME280;20501;45.956;13.632;2023-06-14T01:15:54;100046.41;;;17.82;78.00
34237;BME280;20501;45.956;13.632;2023-06-14T01:18:21;100046.59;;;18.09;75.63
34237;BME280;20501;45.956;13.632;2023-06-14T01:20:49;100051.03;;;18.17;78.37
34237;BME280;20501;45.956;13.632;2023-06-14T01:23:17;100040.69;;;18.05;76.01
34237;BME280;20501;45.956;13.632;2023-06-14T01:25:42;100039.22;;;18.03;72.75
34237;BME280;20501;45.956;13.632;2023-06-14T01:28:10;100034.00;;;18.15;78.23
34237;BME280;20501;45.956;13.632;2023-06-14T01:30:38;100031.41;;;17.71;75.76
34237;BME280;20501;45.956;13.632;2023-06-14T01:33:04;100038.56;;;18.01;79.33
34237;BME280;20501;45.956;13.632;2023-06-14T01:35:31;100034.38;;;17.70;77.85
34237;BME280;20501;45.956;13.632;2023-06-14T01:37:57;100033.81;;;17.81;78.23
34237;BME280;20501;45.956;13.632;2023-06-14T01:40:23;100040.81;;;17.62;79.74
34237;BME280;20501;45.956;13.632;2023-06-14T01:42:50;100039.00;;;17.98;80.51
34237;BME280;20501;45.956;13.632;2023-06-14T01:45:17;100038.34;;;17.67;82.15
34237;BME280;20501;45.956;13.632;2023-06-14T01:47:43;100032.69;;;17.69;81.68
34237;BME280;20501;45.956;13.632;2023-06-14T01:50:10;100030.00;;;18.10;80.58
34237;BME280;20501;45.956;13.632;2023-06-14T01:52:37;100026.34;;;17.33;81.39
34237;BME280;20501;45.956;13.632;2023-06-14T01:55:03;100034.25;;;17.28;82.47
34237;BME280;20501;45.956;13.632;2023-06-14T01:57:28;100034.47;;;17.55;83.18
34237;BME280;20501;45.956;13.632;2023-06-14T01:59:54;100033.53;;;17.98;81.14
34237;BME280;20501;45.956;13.632;2023-06-14T02:02:20;100027.25;;;17.75;83.43
34237;BME280;20501;45.956;13.632;2023-06-14T02:04:45;100035.00;;;17.15;85.02
34237;BME280;20501;45.956;13.632;2023-06-14T02:07:12;100032.41;;;17.57;83.49
34237;BME280;20501;45.956;13.632;2023-06-14T02:09:38;100029.56;;;17.72;82.60
34237;BME280;20501;45.956;13.632;2023-06-14T02:12:03;100024.59;;;17.54;81.86
34237;BME280;20501;45.956;13.632;2023-06-14T02:14:28;100030.84;;;17.76;82.75
34237;BME280;20501;45.956;13.632;2023-06-14T02:16:54;100034.91;;;17.30;81.05
34237;BME280;20501;45.956;13.632;2023-06-14T02:19:20;100037.16;;;17.48;78.97
34237;BME280;20501;45.956;13.632;2023-06-14T02:21:46;100033.19;;;17.51;79.23
34237;BME280;20501;45.956;13.632;2023-06-14T02:24:12;100032.88;;;17.67;78.86
34237;BME280;20501;45.956;13.632;2023-06-14T02:26:38;100028.69;;;17.71;82.19
34237;BME280;20501;45.956;13.632;2023-06-14T02:29:04;100031.88;;;18.10;81.03
34237;BME280;20501;45.956;13.632;2023-06-14T02:31:31;100027.63;;;18.01;81.18
34237;BME280;20501;45.956;13.632;2023-06-14T02:33:57;100030.16;;;17.39;79.95
34237;BME280;20501;45.956;13.632;2023-06-14T02:36:23;100031.94;;;17.25;77.97
34237;BME280;20501;45.956;13.632;2023-06-14T02:38:48;100037.06;;;17.63;81.27
34237;BME280;20501;45.956;13.632;2023-06-14T02:41:13;100021.91;;;17.95;80.48
34237;BME280;20501;45.956;13.632;2023-06-14T02:43:39;100021.53;;;17.63;76.68
34237;BME280;20501;45.956;13.632;2023-06-14T02:46:04;100023.34;;;17.91;79.35
34237;BME280;20501;45.956;13.632;2023-06-14T02:48:30;100021.91;;;17.95;81.46
34237;BME280;20501;45.956;13.632;2023-06-14T02:50:55;100021.91;;;17.95;81.07
34237;BME280;20501;45.956;13.632;2023-06-14T02:53:22;100028.38;;;17.88;78.91
34237;BME280;20501;45.956;13.632;2023-06-14T02:55:47;100020.53;;;17.14;78.79
34237;BME280;20501;45.956;13.632;2023-06-14T02:58:13;100018.25;;;17.46;76.46
34237;BME280;20501;45.956;13.632;2023-06-14T03:00:39;100027.53;;;17.87;81.28
34237;BME280;20501;45.956;13.632;2023-06-14T03:03:06;100023.22;;;17.71;79.41
34237;BME280;20501;45.956;13.632;2023-06-14T03:05:40;100022.22;;;18.14;80.27
34237;BME280;20501;45.956;13.632;2023-06-14T03:08:07;100020.06;;;17.68;79.88
34237;BME280;20501;45.956;13.632;2023-06-14T03:10:32;100017.16;;;17.69;77.54
34237;BME280;20501;45.956;13.632;2023-06-14T03:12:57;100026.72;;;17.58;78.13
34237;BME280;20501;45.956;13.632;2023-06-14T03:15:23;100025.72;;;17.66;80.39
34237;BME280;20501;45.956;13.632;2023-06-14T03:17:49;100030.38;;;17.37;77.14
34237;BME280;20501;45.956;13.632;2023-06-14T03:20:16;100032.13;;;17.52;79.82
34237;BME280;20501;45.956;13.632;2023-06-14T03:22:41;100034.88;;;17.52;82.13
34237;BME280;20501;45.956;13.632;2023-06-14T03:25:07;100033.19;;;17.51;78.50
34237;BME280;20501;45.956;13.632;2023-06-14T03:27:34;100028.25;;;17.39;77.69
34237;BME280;20501;45.956;13.632;2023-06-14T03:30:00;100035.19;;;17.63;79.79
34237;BME280;20501;45.956;13.632;2023-06-14T03:32:25;100034.28;;;17.91;80.75
34237;BME280;20501;45.956;13.632;2023-06-14T03:34:51;100035.72;;;17.87;78.72
34237;BME280;20501;45.956;13.632;2023-06-14T03:37:17;100032.91;;;18.09;79.62
34237;BME280;20501;45.956;13.632;2023-06-14T03:39:43;100031.69;;;17.76;79.98
34237;BME280;20501;45.956;13.632;2023-06-14T03:42:13;100036.09;;;17.77;80.09
34237;BME280;20501;45.956;13.632;2023-06-14T03:44:38;100036.69;;;18.01;79.42
34237;BME280;20501;45.956;13.632;2023-06-14T03:47:04;100041.00;;;17.89;78.06
34237;BME280;20501;45.956;13.632;2023-06-14T03:49:29;100046.00;;;17.50;75.51
34237;BME280;20501;45.956;13.632;2023-06-14T03:51:55;100048.88;;;17.70;76.48
34237;BME280;20501;45.956;13.632;2023-06-14T03:54:21;100045.56;;;17.46;77.84
34237;BME280;20501;45.956;13.632;2023-06-14T03:56:47;100048.56;;;17.58;79.81
34237;BME280;20501;45.956;13.632;2023-06-14T03:59:12;100041.00;;;17.89;79.90
34237;BME280;20501;45.956;13.632;2023-06-14T04:01:38;100040.91;;;17.75;75.03
34237;BME280;20501;45.956;13.632;2023-06-14T04:04:23;100047.69;;;17.79;78.42
34237;BME280;20501;45.956;13.632;2023-06-14T04:06:54;100048.22;;;17.97;79.49
34237;BME280;20501;45.956;13.632;2023-06-14T04:09:19;100054.84;;;17.81;76.67
34237;BME280;20501;45.956;13.632;2023-06-14T04:11:45;100049.63;;;17.57;75.91
34237;BME280;20501;45.956;13.632;2023-06-14T04:14:10;100052.66;;;17.41;76.00
34237;BME280;20501;45.956;13.632;2023-06-14T04:16:35;100057.75;;;17.51;76.24
34237;BME280;20501;45.956;13.632;2023-06-14T04:19:01;100064.81;;;17.38;75.91
34237;BME280;20501;45.956;13.632;2023-06-14T04:21:26;100065.88;;;17.72;80.05
34237;BME280;20501;45.956;13.632;2023-06-14T04:23:54;100066.06;;;17.64;75.76
34237;BME280;20501;45.956;13.632;2023-06-14T04:26:21;100065.38;;;17.90;78.71
34237;BME280;20501;45.956;13.632;2023-06-14T04:28:49;100068.31;;;17.89;78.70
34237;BME280;20501;45.956;13.632;2023-06-14T04:31:14;100072.16;;;17.94;76.72
34237;BME280;20501;45.956;13.632;2023-06-14T04:33:41;100069.81;;;17.91;77.21
34237;BME280;20501;45.956;13.632;2023-06-14T04:36:12;100069.72;;;17.78;74.83
34237;BME280;20501;45.956;13.632;2023-06-14T04:38:39;100073.66;;;17.69;74.81
34237;BME280;20501;45.956;13.632;2023-06-14T04:41:04;100073.09;;;17.80;75.67
34237;BME280;20501;45.956;13.632;2023-06-14T04:43:31;100070.91;;;17.97;78.58
34237;BME280;20501;45.956;13.632;2023-06-14T04:45:57;100074.94;;;18.01;78.08
34237;BME280;20501;45.956;13.632;2023-06-14T04:48:22;100082.16;;;18.16;77.09
34237;BME280;20501;45.956;13.632;2023-06-14T04:50:48;100077.97;;;17.56;78.40
34237;BME280;20501;45.956;13.632;2023-06-14T04:53:18;100078.72;;;17.72;76.71
34237;BME280;20501;45.956;13.632;2023-06-14T04:55:46;100079.19;;;18.10;78.67
34237;BME280;20501;45.956;13.632;2023-06-14T04:58:12;100079.13;;;17.97;78.05
34237;BME280;20501;45.956;13.632;2023-06-14T05:00:38;100083.63;;;18.12;75.97
34237;BME280;20501;45.956;13.632;2023-06-14T05:03:03;100079.88;;;18.19;78.14
34237;BME280;20501;45.956;13.632;2023-06-14T05:05:31;100089.91;;;18.12;78.28
34237;BME280;20501;45.956;13.632;2023-06-14T05:07:57;100077.34;;;18.18;77.45
34237;BME280;20501;45.956;13.632;2023-06-14T05:10:23;100076.56;;;18.37;78.19
34237;BME280;20501;45.956;13.632;2023-06-14T05:12:48;100091.00;;;18.18;74.03
34237;BME280;20501;45.956;13.632;2023-06-14T05:15:14;100087.03;;;18.27;78.11
34237;BME280;20501;45.956;13.632;2023-06-14T05:17:40;100094.25;;;18.35;74.63
34237;BME280;20501;45.956;13.632;2023-06-14T05:20:06;100090.66;;;18.28;72.73
34237;BME280;20501;45.956;13.632;2023-06-14T05:22:32;100095.09;;;18.42;76.50
34237;BME280;20501;45.956;13.632;2023-06-14T05:24:57;100099.75;;;18.41;74.33
34237;BME280;20501;45.956;13.632;2023-06-14T05:27:23;100096.41;;;18.46;71.04
34237;BME280;20501;45.956;13.632;2023-06-14T05:29:50;100104.19;;;18.49;72.90
34237;BME280;20501;45.956;13.632;2023-06-14T05:32:15;100108.66;;;18.57;70.37
34237;BME280;20501;45.956;13.632;2023-06-14T05:34:41;100107.81;;;18.63;73.54
34237;BME280;20501;45.956;13.632;2023-06-14T05:37:06;100108.47;;;18.65;68.55
34237;BME280;20501;45.956;13.632;2023-06-14T05:39:32;100117.09;;;18.69;68.73
34237;BME280;20501;45.956;13.632;2023-06-14T05:41:58;100107.63;;;18.71;69.37
34237;BME280;20501;45.956;13.632;2023-06-14T05:44:23;100116.72;;;18.72;68.98
34237;BME280;20501;45.956;13.632;2023-06-14T05:46:48;100110.34;;;18.65;73.39
34237;BME280;20501;45.956;13.632;2023-06-14T05:49:14;100125.06;;;18.64;73.59
34237;BME280;20501;45.956;13.632;2023-06-14T05:51:39;100117.72;;;18.64;72.87
34237;BME280;20501;45.956;13.632;2023-06-14T05:54:05;100117.31;;;18.74;70.54
34237;BME280;20501;45.956;13.632;2023-06-14T05:56:30;100125.53;;;18.74;73.56
34237;BME280;20501;45.956;13.632;2023-06-14T05:58:55;100126.81;;;18.78;69.70
34237;BME280;20501;45.956;13.632;2023-06-14T06:01:21;100132.72;;;18.82;71.95
34237;BME280;20501;45.956;13.632;2023-06-14T06:03:47;100134.41;;;18.83;71.78
34237;BME280;20501;45.956;13.632;2023-06-14T06:06:13;100144.94;;;18.86;71.07
34237;BME280;20501;45.956;13.632;2023-06-14T06:08:39;100142.63;;;18.83;72.56
34237;BME280;20501;45.956;13.632;2023-06-14T06:11:04;100139.22;;;18.81;72.87
34237;BME280;20501;45.956;13.632;2023-06-14T06:13:30;100149.16;;;18.88;69.40
34237;BME280;20501;45.956;13.632;2023-06-14T06:15:55;100142.41;;;18.84;72.54
34237;BME280;20501;45.956;13.632;2023-06-14T06:18:21;100155.13;;;18.99;70.57
34237;BME280;20501;45.956;13.632;2023-06-14T06:20:47;100160.19;;;19.02;68.33
34237;BME280;20501;45.956;13.632;2023-06-14T06:23:12;100157.22;;;19.03;67.77
34237;BME280;20501;45.956;13.632;2023-06-14T06:25:38;100158.13;;;19.11;66.40
34237;BME280;20501;45.956;13.632;2023-06-14T06:28:03;100152.81;;;19.02;65.90
34237;BME280;20501;45.956;13.632;2023-06-14T06:30:29;100163.16;;;19.00;70.27
34237;BME280;20501;45.956;13.632;2023-06-14T06:32:54;100166.31;;;19.11;67.79
34237;BME280;20501;45.956;13.632;2023-06-14T06:35:21;100160.00;;;19.17;65.41
34237;BME280;20501;45.956;13.632;2023-06-14T06:37:46;100168.88;;;19.26;63.83
34237;BME280;20501;45.956;13.632;2023-06-14T06:40:11;100166.13;;;19.19;65.77
34237;BME280;20501;45.956;13.632;2023-06-14T06:42:37;100167.38;;;19.23;65.56
34237;BME280;20501;45.956;13.632;2023-06-14T06:45:03;100177.31;;;19.31;64.93
34237;BME280;20501;45.956;13.632;2023-06-14T06:47:29;100175.59;;;19.23;67.81
34237;BME280;20501;45.956;13.632;2023-06-14T06:49:55;100182.31;;;19.14;67.45
34237;BME280;20501;45.956;13.632;2023-06-14T06:52:20;100183.81;;;19.23;65.79
34237;BME280;20501;45.956;13.632;2023-06-14T06:54:46;100183.38;;;19.20;71.53
34237;BME280;20501;45.956;13.632;2023-06-14T06:57:11;100187.59;;;19.22;70.24
34237;BME280;20501;45.956;13.632;2023-06-14T06:59:37;100184.25;;;19.20;69.65
34237;BME280;20501;45.956;13.632;2023-06-14T07:02:03;100178.78;;;19.27;68.20
34237;BME280;20501;45.956;13.632;2023-06-14T07:04:29;100174.56;;;19.31;70.48
34237;BME280;20501;45.956;13.632;2023-06-14T07:06:54;100181.50;;;19.20;70.51
34237;BME280;20501;45.956;13.632;2023-06-14T07:09:20;100181.06;;;19.23;72.93
34237;BME280;20501;45.956;13.632;2023-06-14T07:11:46;100181.72;;;19.32;66.34
34237;BME280;20501;45.956;13.632;2023-06-14T07:14:12;100187.84;;;19.27;69.41
34237;BME280;20501;45.956;13.632;2023-06-14T07:16:38;100191.84;;;19.31;70.78
34237;BME280;20501;45.956;13.632;2023-06-14T07:19:03;100189.53;;;19.35;70.37
34237;BME280;20501;45.956;13.632;2023-06-14T07:21:29;100194.16;;;19.34;71.46
34237;BME280;20501;45.956;13.632;2023-06-14T07:23:55;100188.91;;;19.33;71.00
34237;BME280;20501;45.956;13.632;2023-06-14T07:26:21;100195.66;;;19.37;69.92
34237;BME280;20501;45.956;13.632;2023-06-14T07:28:47;100183.44;;;19.33;70.75
34237;BME280;20501;45.956;13.632;2023-06-14T07:31:14;100186.78;;;19.28;70.48
34237;BME280;20501;45.956;13.632;2023-06-14T07:33:40;100178.78;;;19.33;66.12
34237;BME280;20501;45.956;13.632;2023-06-14T07:36:06;100178.19;;;19.38;68.02
34237;BME280;20501;45.956;13.632;2023-06-14T07:38:32;100185.78;;;19.43;66.90
34237;BME280;20501;45.956;13.632;2023-06-14T07:40:57;100179.88;;;19.53;65.45
34237;BME280;20501;45.956;13.632;2023-06-14T07:43:23;100183.22;;;19.34;69.32
34237;BME280;20501;45.956;13.632;2023-06-14T07:45:48;100182.41;;;19.47;66.17
34237;BME280;20501;45.956;13.632;2023-06-14T07:48:14;100183.88;;;19.50;67.23
34237;BME280;20501;45.956;13.632;2023-06-14T07:50:40;100179.88;;;19.59;66.51
34237;BME280;20501;45.956;13.632;2023-06-14T07:53:06;100189.78;;;19.67;65.82
34237;BME280;20501;45.956;13.632;2023-06-14T07:55:31;100194.84;;;19.50;69.58
34237;BME280;20501;45.956;13.632;2023-06-14T07:57:58;100186.41;;;19.72;64.56
34237;BME280;20501;45.956;13.632;2023-06-14T08:00:23;100193.19;;;19.69;64.30
34237;BME280;20501;45.956;13.632;2023-06-14T08:02:49;100189.16;;;19.78;64.44
34237;BME280;20501;45.956;13.632;2023-06-14T08:05:17;100195.69;;;19.71;66.20
34237;BME280;20501;45.956;13.632;2023-06-14T08:07:42;100188.94;;;19.80;65.36
34237;BME280;20501;45.956;13.632;2023-06-14T08:10:08;100195.91;;;19.76;67.73
34237;BME280;20501;45.956;13.632;2023-06-14T08:12:34;100191.28;;;19.83;66.58
34237;BME280;20501;45.956;13.632;2023-06-14T08:15:00;100189.81;;;20.01;67.06
34237;BME280;20501;45.956;13.632;2023-06-14T08:17:25;100185.59;;;20.18;63.71
34237;BME280;20501;45.956;13.632;2023-06-14T08:19:51;100184.28;;;20.34;63.91
34237;BME280;20501;45.956;13.632;2023-06-14T08:22:17;100193.56;;;20.40;63.04
34237;BME280;20501;45.956;13.632;2023-06-14T08:24:43;100188.25;;;20.45;66.96
34237;BME280;20501;45.956;13.632;2023-06-14T08:27:09;100188.91;;;20.47;61.72
34237;BME280;20501;45.956;13.632;2023-06-14T08:29:35;100186.38;;;20.46;61.76
34237;BME280;20501;45.956;13.632;2023-06-14T08:32:00;100182.75;;;20.59;64.28
34237;BME280;20501;45.956;13.632;2023-06-14T08:34:26;100188.41;;;20.70;58.43
34237;BME280;20501;45.956;13.632;2023-06-14T08:36:51;100180.78;;;20.72;61.27
34237;BME280;20501;45.956;13.632;2023-06-14T08:39:16;100194.81;;;20.44;61.02
34237;BME280;20501;45.956;13.632;2023-06-14T08:41:45;100192.94;;;20.38;62.63
34237;BME280;20501;45.956;13.632;2023-06-14T08:44:11;100186.28;;;20.79;57.97
34237;BME280;20501;45.956;13.632;2023-06-14T08:46:37;100191.53;;;20.87;55.04
34237;BME280;20501;45.956;13.632;2023-06-14T08:49:03;100193.25;;;20.75;57.09
34237;BME280;20501;45.956;13.632;2023-06-14T08:51:31;100191.34;;;20.82;56.43
34237;BME280;20501;45.956;13.632;2023-06-14T08:54:03;100199.81;;;20.74;54.03
34237;BME280;20501;45.956;13.632;2023-06-14T08:56:30;100202.13;;;20.70;54.49
34237;BME280;20501;45.956;13.632;2023-06-14T08:58:58;100204.44;;;20.80;55.88
34237;BME280;20501;45.956;13.632;2023-06-14T09:01:28;100197.41;;;20.91;59.63
34237;BME280;20501;45.956;13.632;2023-06-14T09:03:54;100201.78;;;21.12;56.19
34237;BME280;20501;45.956;13.632;2023-06-14T09:06:20;100202.09;;;21.29;53.42
34237;BME280;20501;45.956;13.632;2023-06-14T09:08:48;100193.22;;;20.88;55.34
34237;BME280;20501;45.956;13.632;2023-06-14T09:11:16;100210.16;;;20.65;59.45
34237;BME280;20501;45.956;13.632;2023-06-14T09:13:44;100200.09;;;21.05;55.79
34237;BME280;20501;45.956;13.632;2023-06-14T09:16:10;100206.09;;;20.95;58.52
34237;BME280;20501;45.956;13.632;2023-06-14T09:18:42;100207.19;;;21.26;55.39
34237;BME280;20501;45.956;13.632;2023-06-14T09:21:13;100210.50;;;21.34;55.91
34237;BME280;20501;45.956;13.632;2023-06-14T09:23:40;100205.72;;;21.55;53.17
34237;BME280;20501;45.956;13.632;2023-06-14T09:26:12;100204.84;;;21.68;53.32
34237;BME280;20501;45.956;13.632;2023-06-14T09:28:44;100207.03;;;21.85;54.66
34237;BME280;20501;45.956;13.632;2023-06-14T09:31:14;100209.00;;;21.77;55.68
34237;BME280;20501;45.956;13.632;2023-06-14T09:33:43;100209.66;;;21.98;55.19
34237;BME280;20501;45.956;13.632;2023-06-14T09:36:23;100208.31;;;22.07;54.07
34237;BME280;20501;45.956;13.632;2023-06-14T09:38:56;100209.44;;;21.74;55.53
34237;BME280;20501;45.956;13.632;2023-06-14T09:41:42;100213.56;;;21.19;58.48
34237;BME280;20501;45.956;13.632;2023-06-14T09:44:09;100209.31;;;21.62;55.48
34237;BME280;20501;45.956;13.632;2023-06-14T09:46:36;100198.97;;;21.58;56.47
34237;BME280;20501;45.956;13.632;2023-06-14T09:49:04;100203.00;;;22.13;55.15
34237;BME280;20501;45.956;13.632;2023-06-14T09:51:30;100209.25;;;22.20;52.18
34237;BME280;20501;45.956;13.632;2023-06-14T09:54:00;100207.00;;;22.10;52.19
34237;BME280;20501;45.956;13.632;2023-06-14T09:56:28;100205.06;;;21.92;53.54
34237;BME280;20501;45.956;13.632;2023-06-14T09:58:56;100206.56;;;21.62;55.77
34237;BME280;20501;45.956;13.632;2023-06-14T10:01:26;100208.66;;;21.67;58.05
34237;BME280;20501;45.956;13.632;2023-06-14T10:04:06;100204.97;;;21.41;58.67
34237;BME280;20501;45.956;13.632;2023-06-14T10:06:36;100208.25;;;21.57;56.71
34237;BME280;20501;45.956;13.632;2023-06-14T10:09:08;100200.69;;;22.09;52.40
34237;BME280;20501;45.956;13.632;2023-06-14T10:11:35;100209.56;;;22.30;53.54
34237;BME280;20501;45.956;13.632;2023-06-14T10:14:01;100203.16;;;22.36;51.74
34237;BME280;20501;45.956;13.632;2023-06-14T10:16:31;100205.34;;;22.71;49.37
34237;BME280;20501;45.956;13.632;2023-06-14T10:23:59;100196.19;;;22.15;52.41
34237;BME280;20501;45.956;13.632;2023-06-14T10:26:26;100195.91;;;21.73;55.29
34237;BME280;20501;45.956;13.632;2023-06-14T10:28:59;100196.59;;;21.93;51.90
34237;BME280;20501;45.956;13.632;2023-06-14T10:34:10;100192.81;;;22.13;52.98
34237;BME280;20501;45.956;13.632;2023-06-14T10:36:36;100190.69;;;21.64;58.41
34237;BME280;20501;45.956;13.632;2023-06-14T10:39:09;100190.88;;;20.92;61.48
34237;BME280;20501;45.956;13.632;2023-06-14T10:41:37;100199.91;;;19.80;68.03
34237;BME280;20501;45.956;13.632;2023-06-14T10:46:37;100184.63;;;20.65;59.64
34237;BME280;20501;45.956;13.632;2023-06-14T10:49:03;100182.63;;;21.31;53.79
34237;BME280;20501;45.956;13.632;2023-06-14T10:51:29;100176.00;;;21.13;58.39
34237;BME280;20501;45.956;13.632;2023-06-14T10:53:57;100175.56;;;21.80;54.22
34237;BME280;20501;45.956;13.632;2023-06-14T10:58:53;100178.06;;;22.07;52.64
34237;BME280;20501;45.956;13.632;2023-06-14T11:01:31;100176.59;;;22.05;52.32
34237;BME280;20501;45.956;13.632;2023-06-14T11:04:06;100181.94;;;22.00;53.55
34237;BME280;20501;45.956;13.632;2023-06-14T11:06:48;100174.53;;;22.00;52.29
34237;BME280;20501;45.956;13.632;2023-06-14T11:12:03;100179.56;;;22.03;54.37
34237;BME280;20501;45.956;13.632;2023-06-14T11:14:32;100180.38;;;21.85;56.47
34237;BME280;20501;45.956;13.632;2023-06-14T11:16:57;100181.94;;;22.00;54.78
34237;BME280;20501;45.956;13.632;2023-06-14T11:19:23;100164.38;;;22.01;51.15
34237;BME280;20501;45.956;13.632;2023-06-14T11:21:49;100168.81;;;22.20;49.96
34237;BME280;20501;45.956;13.632;2023-06-14T11:24:16;100155.06;;;22.02;52.29
34237;BME280;20501;45.956;13.632;2023-06-14T11:26:42;100162.22;;;22.47;51.00
34237;BME280;20501;45.956;13.632;2023-06-14T11:29:08;100158.53;;;22.71;49.37
34237;BME280;20501;45.956;13.632;2023-06-14T11:31:33;100160.75;;;22.81;49.24
34237;BME280;20501;45.956;13.632;2023-06-14T11:33:59;100154.72;;;22.72;49.67
34237;BME280;20501;45.956;13.632;2023-06-14T11:36:29;100159.09;;;22.62;49.99
34237;BME280;20501;45.956;13.632;2023-06-14T11:39:02;100145.84;;;22.70;49.03
34237;BME280;20501;45.956;13.632;2023-06-14T11:41:37;100139.75;;;22.50;50.38
34237;BME280;20501;45.956;13.632;2023-06-14T11:44:02;100138.66;;;22.69;50.86
34237;BME280;20501;45.956;13.632;2023-06-14T11:46:28;100139.06;;;23.03;49.66
34237;BME280;20501;45.956;13.632;2023-06-14T11:48:54;100133.63;;;22.97;48.56
34237;BME280;20501;45.956;13.632;2023-06-14T11:51:19;100130.19;;;23.01;49.71
34237;BME280;20501;45.956;13.632;2023-06-14T11:53:46;100129.00;;;22.97;53.39
34237;BME280;20501;45.956;13.632;2023-06-14T11:56:12;100137.31;;;23.52;53.58
34237;BME280;20501;45.956;13.632;2023-06-14T11:58:37;100134.50;;;22.97;53.76
34237;BME280;20501;45.956;13.632;2023-06-14T12:01:03;100134.50;;;22.48;54.75
34237;BME280;20501;45.956;13.632;2023-06-14T12:03:28;100126.97;;;22.37;56.13
34237;BME280;20501;45.956;13.632;2023-06-14T12:06:07;100117.88;;;23.04;53.85
34237;BME280;20501;45.956;13.632;2023-06-14T12:08:37;100120.94;;;22.47;56.81
34237;BME280;20501;45.956;13.632;2023-06-14T12:11:14;100119.78;;;22.73;55.90
34237;BME280;20501;45.956;13.632;2023-06-14T12:13:41;100121.78;;;22.66;55.91
34237;BME280;20501;45.956;13.632;2023-06-14T12:16:10;100106.72;;;22.13;58.21
34237;BME280;20501;45.956;13.632;2023-06-14T12:18:37;100108.25;;;22.95;57.25
34237;BME280;20501;45.956;13.632;2023-06-14T12:21:09;100104.56;;;23.01;52.32
34237;BME280;20501;45.956;13.632;2023-06-14T12:23:46;100102.19;;;23.35;48.50
34237;BME280;20501;45.956;13.632;2023-06-14T12:26:15;100106.66;;;23.72;46.56
34237;BME280;20501;45.956;13.632;2023-06-14T12:28:42;100098.88;;;24.04;44.51
34237;BME280;20501;45.956;13.632;2023-06-14T12:31:10;100096.56;;;23.65;43.88
34237;BME280;20501;45.956;13.632;2023-06-14T12:33:36;100100.19;;;23.90;43.36
34237;BME280;20501;45.956;13.632;2023-06-14T12:36:06;100096.81;;;23.52;42.47
34237;BME280;20501;45.956;13.632;2023-06-14T12:38:32;100093.81;;;23.54;42.07
34237;BME280;20501;45.956;13.632;2023-06-14T12:40:58;100090.94;;;23.60;42.81
34237;BME280;20501;45.956;13.632;2023-06-14T12:43:23;100088.78;;;23.62;43.56
34237;BME280;20501;45.956;13.632;2023-06-14T12:45:49;100079.56;;;24.04;44.01
34237;BME280;20501;45.956;13.632;2023-06-14T12:48:14;100084.13;;;23.75;42.34
34237;BME280;20501;45.956;13.632;2023-06-14T12:50:41;100085.66;;;23.71;43.70
34237;BME280;20501;45.956;13.632;2023-06-14T12:53:06;100085.13;;;23.26;46.84
34237;BME280;20501;45.956;13.632;2023-06-14T12:55:32;100078.13;;;23.90;46.44
34237;BME280;20501;45.956;13.632;2023-06-14T12:57:58;100073.69;;;23.89;45.55